X  Luk Metar data     EKYT Aalborg Airport
Temperatur
3°C Temperatur
-2°C Dugpunkt
70% Fugtighed



Vind
3 M/S
6 MPT
10 KM/T
5 KNOB



20°
NNØ
Nuværende forhold

Klart Klart
Tryk 1000.92 (hPa) - 29.56 (inHg)
Sigt 6.2 (mil) - 10 (km)
Lufthavn
Lufthavnskode EKYT

Lokation: Aalborg Airport
Afstand: 54 (km)

Metar:
EKYT 251350Z AUTO 02005KT 360V060 9999 NCD 03/M02 Q1001

Tid: 25-01-2021 14:50 CET